メインページ
METAR-TAF:

METAR-TAF

空港 :

ジュネーヴ, スイス

ジュネーヴ空港

緯度: 46-15N, 経度: 006-08E, 海抜: 420m

現時点の気象観測

当レポートは25分前の09:20(UTC)に作成
北東の風 12kt
気温 10°C
湿度 76%
気圧 1018 hPa
視程10km以上
高度1500ftの雲はほとんどない
高度2000ftの雲は散在している

METAR: LSGG 250920Z 05012KT 9999 FEW015 SCT020 10/06 Q1018 NOSIG

時間: 10:45 (09:45 UTC)

予報

当レポートは1時間20分前の08:25(UTC)に作成
予報は25日の 09時(UTC)から 26日の 15時(UTC)まで有効
北東の風 11kt
視程: 8000m
高度1500ftの雲はほとんどない
高度2000ftの千切れ雲あり
25日の 09時(UTC)から 25日の 11時(UTC)まで徐々に
視程10km以上
高度2500ftの雲はほとんどない
25日の 16時(UTC)から 25日の 19時(UTC)まで徐々に
南西の風 7kt
高度2500ftの雲は散在している
高度6000ftの雲は散在している
高度9000ftの千切れ雲あり
確率 30% :
25日の 23時(UTC)から 26日の 03時(UTC)まで一時的に
26日の 10時(UTC)から 26日の 13時(UTC)まで徐々に
北東の風 7kt
高度2500ftの雲はほとんどない

TAF: LSGG 250825Z 2509/2615 05011KT 8000 FEW015 BKN020 TX17/2515Z TN06/2606Z TX15/2615Z BECMG 2509/2511 9999 FEW025 BECMG 2516/2519 23007KT SCT025 SCT060 BKN090 PROB30 TEMPO 2523/2603 RA BECMG 2610/2613 05007KT FEW025

4,000以上の空港の気象観測と天気予報(METAR報とTAF報)

利用可能な観測所は地図上に黄色い丸と赤い丸で示す。

丸の上にカーソルを重ねると観測所名を参照できる。

次にクリックすると気象観測と天気予報を参照できる。

マップの切り替え:黒色「×」印の緑ボタンをクリックして拡大、「-」印の緑ボタンをクリックして縮小、緑色の三角印をクリックして隣りの地図に切り替え


METAR-TAF: